Time;durP1;ratioP1;P1;durP2;ratioP2;P2;SDS_P1;SDS_P2;PMS_P1;PMS_P2;Temp;Humidity;BMP_temperature;BMP_pressure;BME280_temperature;BME280_humidity;BME280_pressure;Samples;Min_cycle;Max_cycle;Signal;HPM_P1;HPM_P2
2022/04/29 00:00:42;;;;;;;18.10;7.40;;;;;;;6.15;81.77;103131.22;5030988;28;20178;-72
2022/04/29 00:03:09;;;;;;;12.77;7.50;;;;;;;6.16;81.84;103140.63;5030374;28;20244;-72
2022/04/29 00:05:35;;;;;;;14.70;6.73;;;;;;;6.07;81.98;103140.84;5030718;28;20636;-72
2022/04/29 00:08:05;;;;;;;13.67;6.40;;;;;;;6.08;81.95;103141.75;5030733;28;20545;-72
2022/04/29 00:10:31;;;;;;;10.50;6.83;;;;;;;6.04;81.99;103132.13;5031539;28;20206;-72
2022/04/29 00:12:56;;;;;;;11.57;6.60;;;;;;;6.06;81.61;103126.38;5013936;28;20210;-72
2022/04/29 00:15:21;;;;;;;11.20;5.83;;;;;;;5.97;81.67;103124.78;5031520;28;20846;-72
2022/04/29 00:17:47;;;;;;;13.40;6.13;;;;;;;6.02;81.33;103129.44;5031601;28;20828;-72
2022/04/29 00:20:14;;;;;;;12.57;6.40;;;;;;;5.87;81.55;103124.88;5030580;28;20206;-72
2022/04/29 00:22:41;;;;;;;12.13;6.03;;;;;;;5.84;81.72;103127.22;5031620;28;20198;-72
2022/04/29 00:25:08;;;;;;;12.67;6.67;;;;;;;5.80;81.07;103123.53;5031173;28;20182;-71
2022/04/29 00:27:34;;;;;;;10.40;5.73;;;;;;;5.79;80.61;103133.56;5031700;28;20190;-72
2022/04/29 00:29:59;;;;;;;14.10;6.73;;;;;;;5.73;80.60;103133.09;5030184;28;20193;-72
2022/04/29 00:32:25;;;;;;;11.23;6.63;;;;;;;5.75;81.27;103134.13;5029431;28;20309;-72
2022/04/29 00:34:50;;;;;;;10.27;6.33;;;;;;;5.63;81.72;103136.63;5030345;28;20202;-72
2022/04/29 00:37:19;;;;;;;13.70;6.50;;;;;;;5.64;81.66;103130.75;5017320;28;20858;-72
2022/04/29 00:39:44;;;;;;;10.47;6.47;;;;;;;5.53;81.47;103126.50;5010366;28;20184;-72
2022/04/29 00:42:11;;;;;;;14.03;6.33;;;;;;;5.57;81.25;103118.34;5009603;28;20724;-72
2022/04/29 00:44:39;;;;;;;13.23;6.60;;;;;;;5.52;81.45;103127.28;5019697;28;20187;-72
2022/04/29 00:47:06;;;;;;;9.67;6.73;;;;;;;5.43;81.69;103126.56;5033368;28;20222;-72
2022/04/29 00:49:32;;;;;;;10.63;6.40;;;;;;;5.48;81.33;103121.88;5030705;28;20190;-72
2022/04/29 00:51:57;;;;;;;8.33;6.20;;;;;;;5.39;81.63;103127.09;5030869;28;20210;-71
2022/04/29 00:54:30;;;;;;;12.17;6.10;;;;;;;5.40;81.81;103122.94;5012666;28;20259;-72
2022/04/29 00:56:57;;;;;;;9.57;6.27;;;;;;;5.44;81.73;103124.94;5031191;28;20182;-71
2022/04/29 00:59:27;;;;;;;13.77;6.93;;;;;;;5.41;82.25;103123.03;5029294;28;20201;-72
2022/04/29 01:01:55;;;;;;;15.37;8.07;;;;;;;5.48;82.74;103117.66;5029401;28;20296;-72
2022/04/29 01:04:27;;;;;;;15.73;8.07;;;;;;;5.41;83.57;103114.53;5029041;28;20244;-71
2022/04/29 01:06:53;;;;;;;15.07;7.87;;;;;;;5.44;84.22;103097.00;5029612;28;20194;-72
2022/04/29 01:09:18;;;;;;;13.63;7.07;;;;;;;5.45;83.28;103104.75;5030798;28;20554;-72
2022/04/29 01:11:45;;;;;;;12.73;7.47;;;;;;;5.49;83.74;103110.94;5012436;28;20595;-72
2022/04/29 01:14:11;;;;;;;11.53;7.30;;;;;;;5.44;83.77;103104.63;5009680;28;20195;-72
2022/04/29 01:16:36;;;;;;;11.47;7.63;;;;;;;5.41;83.53;103107.81;5010436;28;20194;-72
2022/04/29 01:19:02;;;;;;;15.57;8.40;;;;;;;5.41;83.75;103106.91;5009436;28;20279;-72
2022/04/29 01:21:27;;;;;;;15.27;8.10;;;;;;;5.37;84.69;103107.44;5010224;28;20207;-72
2022/04/29 01:23:52;;;;;;;16.60;7.67;;;;;;;5.36;83.86;103108.22;5010661;28;20260;-72
2022/04/29 01:26:18;;;;;;;16.17;7.93;;;;;;;5.40;83.67;103105.16;5009379;28;20285;-72
2022/04/29 01:28:51;;;;;;;13.20;6.67;;;;;;;5.29;83.39;103100.91;5025425;28;20201;-72
2022/04/29 01:31:18;;;;;;;14.03;7.70;;;;;;;5.31;83.51;103107.88;5012537;28;20225;-72
2022/04/29 01:33:48;;;;;;;11.87;7.20;;;;;;;5.22;83.34;103099.56;5028544;28;20194;-72
2022/04/29 01:36:14;;;;;;;13.23;7.53;;;;;;;5.25;83.70;103099.78;5028619;28;20182;-72
2022/04/29 01:38:40;;;;;;;16.17;7.67;;;;;;;5.27;83.44;103098.25;5028510;28;20182;-72
2022/04/29 01:41:07;;;;;;;14.47;6.97;;;;;;;5.21;83.51;103094.34;5028537;28;20206;-72
2022/04/29 01:43:43;;;;;;;15.53;7.43;;;;;;;5.23;83.90;103097.88;5029456;28;20273;-72
2022/04/29 01:46:11;;;;;;;11.40;7.67;;;;;;;5.16;83.19;103098.19;5029786;28;20182;-72
2022/04/29 01:48:57;;;;;;;13.80;7.23;;;;;;;5.10;83.55;103100.25;5008840;28;20282;-71
2022/04/29 01:51:28;;;;;;;15.23;7.40;;;;;;;5.10;83.74;103092.63;5010080;28;20285;-72
2022/04/29 01:53:55;;;;;;;15.70;8.07;;;;;;;5.13;84.41;103093.78;5008970;28;20191;-72
2022/04/29 01:56:32;;;;;;;12.63;7.83;;;;;;;5.13;84.92;103090.34;5008473;28;20198;-72
2022/04/29 01:58:58;;;;;;;14.03;8.23;;;;;;;5.12;84.96;103091.09;5009150;28;20656;-72
2022/04/29 02:01:25;;;;;;;19.23;8.20;;;;;;;5.10;85.87;103088.44;5012909;28;20226;-72
2022/04/29 02:03:50;;;;;;;15.87;7.97;;;;;;;5.12;85.15;103088.56;5028242;28;20232;-72
2022/04/29 02:06:16;;;;;;;17.83;8.00;;;;;;;5.08;85.22;103090.00;5027910;28;20571;-72
2022/04/29 02:08:42;;;;;;;15.93;7.77;;;;;;;5.09;85.26;103091.75;5029732;28;20183;-72
2022/04/29 02:11:07;;;;;;;16.87;8.00;;;;;;;5.12;85.66;103092.00;5028195;28;20250;-71
2022/04/29 02:13:33;;;;;;;17.13;9.40;;;;;;;5.30;86.81;103097.59;5027942;28;20710;-72
2022/04/29 02:16:15;;;;;;;20.03;9.53;;;;;;;5.30;87.54;103088.31;5028402;28;20190;-72
2022/04/29 02:18:42;;;;;;;15.50;9.03;;;;;;;5.34;87.80;103094.53;5020793;28;20202;-72
2022/04/29 02:21:08;;;;;;;20.93;10.10;;;;;;;5.33;87.92;103086.00;5008690;28;20203;-72
2022/04/29 02:23:33;;;;;;;20.47;10.00;;;;;;;5.35;88.22;103084.47;5007938;28;20183;-72
2022/04/29 02:25:59;;;;;;;20.20;10.47;;;;;;;5.42;88.15;103080.72;5008588;28;20680;-72
2022/04/29 02:28:25;;;;;;;21.00;9.77;;;;;;;5.49;88.92;103083.88;5007981;28;20273;-71
2022/04/29 02:30:50;;;;;;;20.90;10.43;;;;;;;5.46;89.03;103081.09;5008471;28;20195;-71
2022/04/29 02:33:17;;;;;;;18.33;10.63;;;;;;;5.47;89.58;103080.31;5008031;28;20221;-72
2022/04/29 02:35:42;;;;;;;16.77;10.50;;;;;;;5.46;89.26;103083.63;5023107;28;20202;-72
2022/04/29 02:38:08;;;;;;;19.30;10.87;;;;;;;5.45;89.81;103081.88;5038956;28;20209;-72
2022/04/29 02:40:34;;;;;;;21.83;11.20;;;;;;;5.56;90.32;103088.63;5042236;28;20178;-72
2022/04/29 02:42:59;;;;;;;20.73;10.77;;;;;;;5.64;90.66;103090.09;5028184;28;20861;-72
2022/04/29 02:45:24;;;;;;;25.00;11.30;;;;;;;5.59;91.03;103083.78;5029382;28;20285;-72
2022/04/29 02:47:51;;;;;;;21.70;11.23;;;;;;;5.56;90.77;103075.94;5029052;28;20194;-72
2022/04/29 02:50:17;;;;;;;19.63;10.63;;;;;;;5.53;90.67;103085.00;5031904;28;20240;-72
2022/04/29 02:52:48;;;;;;;18.60;11.37;;;;;;;5.52;90.25;103083.22;5029578;28;20236;-72
2022/04/29 02:55:13;;;;;;;19.17;10.13;;;;;;;5.45;89.64;103075.91;5038381;28;20662;-72
2022/04/29 02:58:08;;;;;;;21.87;11.37;;;;;;;5.47;90.21;103072.69;5048323;28;20189;-72
2022/04/29 03:00:34;;;;;;;21.93;10.97;;;;;;;5.47;90.36;103071.81;5032025;28;20174;-72
2022/04/29 03:02:59;;;;;;;18.20;10.63;;;;;;;5.46;90.49;103077.66;5031034;28;20198;-73
2022/04/29 03:05:26;;;;;;;22.30;10.07;;;;;;;5.43;90.37;103069.81;5015614;28;20205;-72
2022/04/29 03:07:51;;;;;;;16.50;10.03;;;;;;;5.44;89.87;103069.91;5033102;28;20190;-72
2022/04/29 03:10:17;;;;;;;22.70;10.57;;;;;;;5.37;89.62;103067.69;5019654;28;20539;-72
2022/04/29 03:12:42;;;;;;;16.67;9.97;;;;;;;5.36;89.50;103065.94;5011409;28;20727;-72
2022/04/29 03:15:18;;;;;;;18.73;10.40;;;;;;;5.45;89.55;103069.16;5012325;28;20305;-72
2022/04/29 03:20:37;;;;;;;19.77;10.27;;;;;;;5.42;89.56;103074.00;5011734;28;20187;-72
2022/04/29 03:23:04;;;;;;;18.73;10.70;;;;;;;5.33;89.23;103060.63;5012930;28;20198;-72
2022/04/29 03:25:29;;;;;;;17.83;10.33;;;;;;;5.26;89.82;103058.41;5011291;28;20187;-72
2022/04/29 03:27:56;;;;;;;16.20;10.30;;;;;;;5.30;89.75;103051.88;5011762;28;20680;-71
2022/04/29 03:30:21;;;;;;;17.50;10.57;;;;;;;5.26;89.30;103050.78;5011195;28;20190;-72
2022/04/29 03:32:52;;;;;;;21.90;10.70;;;;;;;5.32;89.06;103050.34;5011208;28;20398;-72
2022/04/29 03:35:27;;;;;;;16.57;10.70;;;;;;;5.29;89.22;103055.19;5011112;28;20191;-71
2022/04/29 03:37:53;;;;;;;17.83;10.70;;;;;;;5.33;89.42;103050.44;5011637;28;20609;-72
2022/04/29 03:40:24;;;;;;;19.87;11.23;;;;;;;5.32;89.39;103047.78;5011361;28;20183;-72
2022/04/29 03:42:52;;;;;;;24.40;11.83;;;;;;;5.32;90.33;103048.69;5011928;28;20203;-71
2022/04/29 03:45:18;;;;;;;20.07;11.43;;;;;;;5.42;90.49;103050.25;5011427;28;20667;-72
2022/04/29 03:47:43;;;;;;;21.03;11.50;;;;;;;5.46;90.02;103055.69;5019053;28;20573;-72
2022/04/29 03:50:29;;;;;;;21.17;11.23;;;;;;;5.45;90.24;103046.31;5053389;28;20194;-73
2022/04/29 03:53:06;;;;;;;18.80;10.80;;;;;;;5.44;90.82;103044.50;5050318;28;20213;-73
2022/04/29 03:55:35;;;;;;;26.47;12.00;;;;;;;5.39;90.75;103057.66;5051283;28;20201;-72
2022/04/29 03:58:02;;;;;;;20.60;11.77;;;;;;;5.45;91.21;103056.47;5033949;28;20197;-73
2022/04/29 04:00:31;;;;;;;24.07;12.30;;;;;;;5.49;91.15;103050.84;5037863;28;20278;-73
2022/04/29 04:03:00;;;;;;;18.70;11.60;;;;;;;5.46;91.15;103055.69;4994065;28;20829;-73
2022/04/29 04:05:26;;;;;;;24.13;13.63;;;;;;;5.49;90.90;103055.03;5011239;28;20273;-73
2022/04/29 04:07:51;;;;;;;19.90;12.00;;;;;;;5.47;91.16;103048.94;5011108;28;20294;-73
2022/04/29 04:10:35;;;;;;;19.37;11.67;;;;;;;5.48;91.02;103049.06;5012397;28;20642;-74
2022/04/29 04:13:01;;;;;;;21.37;12.10;;;;;;;5.51;91.03;103045.84;4999832;28;20297;-73
2022/04/29 04:15:45;;;;;;;20.77;11.73;;;;;;;5.54;91.17;103046.09;5011168;28;20205;-73
2022/04/29 04:18:10;;;;;;;19.83;11.87;;;;;;;5.50;90.30;103045.00;5021963;28;20734;-74
2022/04/29 04:20:35;;;;;;;20.13;11.43;;;;;;;5.54;90.27;103054.63;5031559;28;21150;-73
2022/04/29 04:23:04;;;;;;;27.23;12.37;;;;;;;5.52;90.55;103055.28;5030180;28;20210;-73
2022/04/29 04:25:30;;;;;;;19.53;11.00;;;;;;;5.57;90.11;103049.75;5029896;28;20584;-73
2022/04/29 04:27:55;;;;;;;23.63;11.43;;;;;;;5.63;90.26;103050.22;5030330;28;20996;-73
2022/04/29 04:30:31;;;;;;;21.00;11.77;;;;;;;5.68;90.10;103053.09;5029878;28;20671;-72
2022/04/29 04:32:56;;;;;;;19.43;11.00;;;;;;;5.71;90.24;103051.66;5013275;28;20222;-73
2022/04/29 04:35:21;;;;;;;21.63;11.77;;;;;;;5.72;90.28;103056.00;5000594;28;20198;-73
2022/04/29 04:37:48;;;;;;;17.77;11.87;;;;;;;5.82;90.34;103062.66;5009799;28;20678;-73
2022/04/29 04:40:18;;;;;;;23.57;12.03;;;;;;;5.82;90.33;103062.66;5010485;28;20197;-73
2022/04/29 04:42:48;;;;;;;19.80;11.47;;;;;;;5.86;90.39;103063.00;5009589;28;20750;-73
2022/04/29 04:45:24;;;;;;;18.43;11.10;;;;;;;5.87;89.83;103064.78;5010247;28;20178;-73
2022/04/29 04:48:10;;;;;;;24.00;11.40;;;;;;;5.88;89.75;103066.53;5022820;28;20198;-73
2022/04/29 04:51:01;;;;;;;17.87;10.60;;;;;;;5.96;89.64;103080.72;5050032;28;20665;-73
2022/04/29 04:53:27;;;;;;;22.20;12.03;;;;;;;5.97;89.70;103073.94;5037208;28;20214;-73
2022/04/29 04:55:53;;;;;;;19.30;11.40;;;;;;;5.96;89.75;103070.53;5028515;28;20754;-73
2022/04/29 04:58:18;;;;;;;21.83;12.63;;;;;;;6.00;89.48;103075.06;5047931;28;20182;-73
2022/04/29 05:00:44;;;;;;;23.27;11.53;;;;;;;5.95;89.50;103081.44;5049238;28;20657;-72
2022/04/29 05:03:29;;;;;;;18.10;11.23;;;;;;;6.00;89.09;103074.19;5049790;28;20196;-73
2022/04/29 05:06:18;;;;;;;20.97;12.17;;;;;;;6.01;89.11;103079.38;5050919;28;20217;-73
2022/04/29 05:08:43;;;;;;;21.20;10.70;;;;;;;6.03;88.83;103075.28;5034410;28;20276;-73
2022/04/29 05:11:08;;;;;;;22.40;11.70;;;;;;;6.07;88.73;103079.81;4992364;28;20219;-73
2022/04/29 05:13:35;;;;;;;20.13;10.70;;;;;;;6.04;88.44;103077.03;5009349;28;20766;-72
2022/04/29 05:16:02;;;;;;;18.57;10.73;;;;;;;6.07;88.45;103078.91;5009206;28;20199;-72
2022/04/29 05:18:39;;;;;;;21.33;11.30;;;;;;;6.10;88.40;103071.53;4995062;28;20191;-72
2022/04/29 05:21:11;;;;;;;20.83;11.83;;;;;;;6.09;88.16;103070.66;4993679;28;20894;-72
2022/04/29 05:23:37;;;;;;;20.47;11.20;;;;;;;6.09;88.35;103069.75;5009430;28;20241;-72
2022/04/29 05:26:28;;;;;;;19.60;12.93;;;;;;;6.13;88.38;103074.31;5011200;28;20292;-72
2022/04/29 05:29:28;;;;;;;18.57;10.97;;;;;;;6.23;87.96;103074.19;5010573;28;20191;-73
2022/04/29 05:32:14;;;;;;;20.57;11.13;;;;;;;6.33;87.38;103067.34;5010197;28;20280;-72
2022/04/29 05:34:58;;;;;;;17.50;11.60;;;;;;;6.42;87.59;103072.19;5010674;28;20210;-73
2022/04/29 05:37:50;;;;;;;20.37;12.27;;;;;;;6.60;86.79;103076.94;5009989;28;20191;-73
2022/04/29 05:43:03;;;;;;;17.80;11.43;;;;;;;7.21;84.90;103067.69;5008632;28;20583;-73
2022/04/29 05:45:32;;;;;;;19.70;11.07;;;;;;;7.47;83.78;103074.56;5009042;28;20564;-73
2022/04/29 05:47:58;;;;;;;19.87;10.63;;;;;;;7.48;82.92;103072.13;5019200;28;20187;-73
2022/04/29 05:50:23;;;;;;;19.83;10.93;;;;;;;7.45;83.79;103071.00;5029598;28;20186;-73
2022/04/29 05:52:49;;;;;;;18.53;11.03;;;;;;;7.46;82.69;103070.25;5028418;28;20237;-73
2022/04/29 05:55:14;;;;;;;19.40;10.57;;;;;;;7.51;82.41;103074.84;5028215;28;20297;-72
2022/04/29 05:57:40;;;;;;;18.77;10.30;;;;;;;7.58;82.02;103081.25;5028642;28;20201;-72
2022/04/29 06:00:06;;;;;;;18.37;10.10;;;;;;;7.63;82.37;103072.25;5018149;28;20313;-72
2022/04/29 06:02:42;;;;;;;18.97;10.63;;;;;;;7.72;81.88;103071.19;5010299;28;20211;-72
2022/04/29 06:05:13;;;;;;;23.37;10.97;;;;;;;7.78;81.94;103068.19;4993274;28;20187;-73
2022/04/29 06:07:41;;;;;;;18.87;10.40;;;;;;;7.88;81.05;103061.22;5008468;28;20310;-72
2022/04/29 06:10:08;;;;;;;17.80;11.03;;;;;;;8.04;82.17;103069.09;5009128;28;20564;-73
2022/04/29 06:12:40;;;;;;;18.73;10.80;;;;;;;8.20;80.98;103069.31;5040243;28;20302;-72
2022/04/29 06:15:13;;;;;;;17.83;9.93;;;;;;;8.28;80.60;103070.72;5028399;28;20562;-72
2022/04/29 06:17:59;;;;;;;14.43;9.10;;;;;;;8.44;79.57;103070.03;5028094;28;20213;-72
2022/04/29 06:21:03;;;;;;;13.97;9.50;;;;;;;8.60;80.19;103075.28;5007504;28;20190;-73
2022/04/29 06:23:38;;;;;;;17.77;9.90;;;;;;;8.53;78.52;103075.72;5006864;28;20186;-72
2022/04/29 06:26:04;;;;;;;18.10;9.97;;;;;;;8.59;78.11;103074.44;5009543;28;20607;-73
2022/04/29 06:28:34;;;;;;;15.13;9.40;;;;;;;8.69;78.80;103074.22;5027857;28;20186;-73
2022/04/29 06:31:00;;;;;;;19.07;9.87;;;;;;;8.79;78.56;103074.00;5026155;28;20304;-72
2022/04/29 06:33:48;;;;;;;16.67;8.93;;;;;;;9.02;77.28;103062.63;5027147;28;20211;-72
2022/04/29 06:36:16;;;;;;;15.10;9.07;;;;;;;9.24;76.85;103061.47;5011491;28;20273;-73
2022/04/29 06:38:45;;;;;;;15.70;10.13;;;;;;;9.32;77.93;103062.84;5027316;28;20194;-73
2022/04/29 06:41:29;;;;;;;15.13;9.20;;;;;;;9.40;76.83;103060.72;5028892;28;20217;-73
2022/04/29 06:43:59;;;;;;;12.73;9.30;;;;;;;9.51;76.27;103062.25;5027262;28;20202;-73
2022/04/29 06:46:43;;;;;;;11.17;8.70;;;;;;;9.55;75.65;103053.97;5028791;28;20258;-72
2022/04/29 06:49:27;;;;;;;12.07;8.67;;;;;;;9.89;75.12;103073.03;5028845;28;20186;-72
2022/04/29 06:52:11;;;;;;;18.17;8.60;;;;;;;10.24;73.47;103064.06;5027612;28;20280;-71
2022/04/29 06:54:49;;;;;;;13.67;9.00;;;;;;;10.35;72.52;103060.41;5007297;28;20258;-73
2022/04/29 06:57:14;;;;;;;11.30;8.20;;;;;;;10.64;72.54;103057.75;5021879;28;20626;-73
2022/04/29 06:59:40;;;;;;;11.73;7.80;;;;;;;10.93;71.37;103057.63;5028602;28;20194;-73
2022/04/29 07:02:06;;;;;;;15.13;8.20;;;;;;;11.08;70.17;103057.56;5026461;28;20637;-73
2022/04/29 07:04:32;;;;;;;13.43;8.33;;;;;;;11.16;69.21;103054.59;5027020;28;20226;-72
2022/04/29 07:06:58;;;;;;;15.70;8.47;;;;;;;11.20;69.78;103059.09;5023238;28;20304;-72
2022/04/29 07:09:24;;;;;;;10.67;7.63;;;;;;;11.10;68.72;103056.84;5007691;28;20672;-71
2022/04/29 07:12:24;;;;;;;12.53;7.43;;;;;;;11.49;69.39;103058.94;5018371;28;20233;-72
2022/04/29 07:14:55;;;;;;;13.63;8.23;;;;;;;11.22;68.93;103061.75;5023936;28;20191;-72
2022/04/29 07:17:22;;;;;;;13.03;7.60;;;;;;;11.20;68.84;103060.78;5007904;28;20191;-72
2022/04/29 07:19:52;;;;;;;13.23;7.50;;;;;;;11.22;68.78;103060.06;5007786;28;20279;-72
2022/04/29 07:22:18;;;;;;;12.40;6.93;;;;;;;11.54;68.48;103060.06;5010565;28;20198;-72
2022/04/29 07:24:45;;;;;;;12.13;7.43;;;;;;;11.82;68.38;103052.97;5026745;28;20197;-72
2022/04/29 07:27:13;;;;;;;9.40;6.00;;;;;;;12.19;66.17;103048.81;5010771;28;20186;-72
2022/04/29 07:29:38;;;;;;;12.13;6.23;;;;;;;12.29;67.17;103055.25;5027384;28;20183;-72
2022/04/29 07:32:11;;;;;;;14.70;6.97;;;;;;;12.61;65.50;103044.81;5026865;28;20240;-72
2022/04/29 07:43:21;;;;;;;11.73;6.77;;;;;;;13.56;60.83;103044.00;5010599;28;20187;-72
2022/04/29 07:45:51;;;;;;;10.63;6.20;;;;;;;13.87;60.77;103036.75;5011365;28;20238;-72
2022/04/29 07:48:28;;;;;;;10.80;6.63;;;;;;;13.84;59.43;103032.34;5012195;28;20198;-72
2022/04/29 07:50:55;;;;;;;14.07;6.67;;;;;;;14.04;59.21;103030.59;5011308;28;20202;-72
2022/04/29 07:53:21;;;;;;;11.90;6.73;;;;;;;14.09;58.77;103024.78;5010359;28;20302;-71
2022/04/29 07:55:46;;;;;;;11.53;6.57;;;;;;;13.94;58.17;103028.44;5025746;28;20191;-74
2022/04/29 07:58:12;;;;;;;11.67;6.83;;;;;;;14.12;58.15;103027.50;5026590;28;20187;-72
2022/04/29 08:00:38;;;;;;;13.23;6.93;;;;;;;14.45;57.97;103020.25;5015880;28;20544;-73
2022/04/29 08:03:05;;;;;;;9.13;6.27;;;;;;;14.50;57.52;103024.75;5030049;28;20932;-72
2022/04/29 08:05:52;;;;;;;10.33;7.23;;;;;;;14.57;57.64;103021.59;5030767;28;20181;-72
2022/04/29 08:08:19;;;;;;;13.17;6.50;;;;;;;14.62;56.44;103025.22;5033199;28;20217;-72
2022/04/29 08:10:45;;;;;;;13.60;6.83;;;;;;;14.53;57.33;103016.25;5013414;28;20198;-73
2022/04/29 08:13:11;;;;;;;8.97;7.00;;;;;;;14.46;57.52;103016.84;5031598;28;20300;-72
2022/04/29 08:15:55;;;;;;;12.47;7.60;;;;;;;14.81;56.99;103019.03;5021180;28;20233;-72
2022/04/29 08:18:33;;;;;;;12.43;6.93;;;;;;;15.25;55.50;103017.25;5010473;28;20183;-72
2022/04/29 08:20:58;;;;;;;9.27;6.13;;;;;;;15.42;54.02;103023.06;5029942;28;20244;-72
2022/04/29 08:23:23;;;;;;;11.93;6.50;;;;;;;15.04;54.55;103013.91;5029561;28;20190;-72
2022/04/29 08:25:49;;;;;;;13.13;6.93;;;;;;;15.45;54.85;103013.69;5030071;28;20190;-72
2022/04/29 08:28:15;;;;;;;9.27;6.10;;;;;;;15.54;53.56;103013.13;5029691;28;20390;-72
2022/04/29 08:30:40;;;;;;;9.83;5.80;;;;;;;16.07;52.78;103006.28;5030178;28;20189;-72
2022/04/29 08:33:12;;;;;;;11.97;6.77;;;;;;;16.35;51.49;103013.22;5017382;28;20250;-72
2022/04/29 08:35:42;;;;;;;8.67;5.70;;;;;;;16.61;51.93;103005.44;5010648;28;20183;-72
2022/04/29 08:38:10;;;;;;;10.17;5.83;;;;;;;16.74;51.54;103007.56;5030041;28;20193;-72
2022/04/29 08:40:45;;;;;;;10.57;5.40;;;;;;;16.74;50.28;103001.50;5029473;28;20182;-72
2022/04/29 08:43:13;;;;;;;12.17;5.70;;;;;;;16.67;50.27;103000.44;5029807;28;20655;-71
2022/04/29 08:45:40;;;;;;;9.67;5.83;;;;;;;16.43;49.91;103004.88;5029433;28;20190;-72
2022/04/29 08:48:06;;;;;;;9.90;5.20;;;;;;;16.53;49.68;103004.31;5031673;28;20206;-72
2022/04/29 08:50:37;;;;;;;11.07;5.37;;;;;;;16.55;50.23;103002.69;5014264;28;20199;-72
2022/04/29 08:53:02;;;;;;;10.80;5.23;;;;;;;16.27;49.97;103006.94;5011481;28;20272;-72
2022/04/29 09:01:01;;;;;;;8.60;4.77;;;;;;;16.22;49.28;103006.81;5031095;28;20598;-72
2022/04/29 09:03:27;;;;;;;10.63;5.00;;;;;;;16.28;49.50;103009.56;5030181;28;20186;-72
2022/04/29 09:05:52;;;;;;;8.20;4.50;;;;;;;16.27;49.21;102996.59;5032447;28;20193;-71
2022/04/29 09:08:20;;;;;;;10.80;5.47;;;;;;;15.94;50.61;103000.69;5031381;28;20259;-72
2022/04/29 09:10:51;;;;;;;8.97;5.20;;;;;;;15.63;51.48;103005.69;5030592;28;20207;-71
2022/04/29 09:13:24;;;;;;;10.73;5.33;;;;;;;15.33;52.22;103013.22;5028676;28;20232;-72
2022/04/29 09:15:58;;;;;;;8.83;5.20;;;;;;;15.25;52.26;103008.63;5030765;28;20162;-72
2022/04/29 09:18:33;;;;;;;9.13;5.23;;;;;;;15.34;52.18;103006.41;5029140;28;20185;-71
2022/04/29 09:21:02;;;;;;;7.57;4.70;;;;;;;15.37;52.12;102994.47;5029947;28;20201;-72
2022/04/29 09:23:29;;;;;;;9.63;5.37;;;;;;;16.03;50.05;102991.50;5022820;28;20210;-71
2022/04/29 09:26:28;;;;;;;10.37;4.90;;;;;;;16.63;48.53;102995.16;5010547;28;20274;-72
2022/04/29 09:29:19;;;;;;;6.13;4.60;;;;;;;16.90;47.40;102996.78;5010393;28;20283;-72
2022/04/29 09:32:05;;;;;;;8.70;4.60;;;;;;;17.29;45.44;102999.59;5009660;28;20381;-72
2022/04/29 09:34:58;;;;;;;7.43;4.50;;;;;;;17.42;46.18;102986.19;5001859;28;20195;-72
2022/04/29 09:37:29;;;;;;;10.40;4.93;;;;;;;17.67;46.00;102978.16;5010556;28;20193;-72
2022/04/29 09:40:00;;;;;;;8.30;5.10;;;;;;;17.78;47.48;102985.38;5009068;28;20194;-73
2022/04/29 09:42:39;;;;;;;12.57;4.80;;;;;;;18.05;47.26;102983.44;5009952;28;20206;-72
2022/04/29 09:45:11;;;;;;;8.17;4.47;;;;;;;18.32;45.04;102986.66;5010414;28;20175;-71
2022/04/29 09:47:37;;;;;;;7.60;4.50;;;;;;;18.19;43.55;102981.19;5008351;28;20260;-73
2022/04/29 09:50:04;;;;;;;6.70;4.37;;;;;;;18.66;43.52;102978.78;5008827;28;20273;-73
2022/04/29 09:52:30;;;;;;;8.37;4.50;;;;;;;18.72;42.20;102975.44;5010186;28;20226;-72
2022/04/29 09:55:19;;;;;;;8.83;4.10;;;;;;;19.03;41.42;102976.06;5009521;28;20203;-72
2022/04/29 09:57:48;;;;;;;8.33;4.37;;;;;;;19.18;40.08;102971.19;5012786;28;20238;-73
2022/04/29 10:00:14;;;;;;;6.57;3.97;;;;;;;19.46;39.57;102969.97;5009703;28;20219;-73
2022/04/29 10:02:41;;;;;;;7.47;4.37;;;;;;;19.62;39.69;102972.84;5010995;28;20217;-72
2022/04/29 10:05:08;;;;;;;7.53;4.03;;;;;;;19.33;39.98;102976.69;5033723;28;20186;-73
2022/04/29 10:07:34;;;;;;;10.47;4.47;;;;;;;19.26;40.33;102966.16;5029226;28;20609;-73
2022/04/29 10:10:04;;;;;;;7.67;4.00;;;;;;;19.56;41.17;102964.06;5027713;28;20575;-73
2022/04/29 10:12:31;;;;;;;8.80;4.20;;;;;;;19.55;40.05;102963.22;5027687;28;20278;-74
2022/04/29 10:15:23;;;;;;;8.70;3.97;;;;;;;19.69;40.91;102961.72;5028222;28;20202;-73
2022/04/29 10:23:32;;;;;;;8.73;3.93;;;;;;;19.76;37.53;102962.69;5008986;28;20183;-74
2022/04/29 10:25:57;;;;;;;7.57;3.80;;;;;;;19.43;39.07;102959.53;5009457;28;20826;-74
2022/04/29 10:28:25;;;;;;;6.37;3.83;;;;;;;19.19;38.49;102954.75;5008871;28;20215;-74
2022/04/29 10:31:09;;;;;;;7.73;3.70;;;;;;;19.23;39.12;102955.69;5022324;28;20205;-73
2022/04/29 10:33:36;;;;;;;7.10;3.70;;;;;;;19.29;38.82;102961.00;5029353;28;20199;-74
2022/04/29 10:36:10;;;;;;;8.40;3.10;;;;;;;19.56;37.04;102962.34;5048964;28;20189;-74
2022/04/29 10:38:40;;;;;;;5.70;3.40;;;;;;;20.36;37.91;102955.81;5033465;28;20186;-74
2022/04/29 10:41:27;;;;;;;5.50;3.40;;;;;;;20.20;37.32;102953.84;5027550;28;20190;-73
2022/04/29 10:43:56;;;;;;;5.43;2.93;;;;;;;19.99;37.91;102949.16;5027091;28;20623;-74
2022/04/29 10:46:39;;;;;;;5.63;3.27;;;;;;;20.06;36.43;102957.94;5028387;28;20249;-74
2022/04/29 10:49:30;;;;;;;6.83;3.30;;;;;;;20.23;37.27;102949.53;5023723;28;20331;-74
2022/04/29 10:52:26;;;;;;;6.10;3.27;;;;;;;19.94;37.42;102957.78;5039836;28;20275;-73
2022/04/29 10:55:21;;;;;;;7.10;2.97;;;;;;;19.86;36.88;102947.22;5047216;28;20207;-74
2022/04/29 10:58:19;;;;;;;6.83;3.60;;;;;;;20.21;37.53;102942.56;5049224;28;20196;-74
2022/04/29 11:01:16;;;;;;;9.67;3.40;;;;;;;20.39;37.06;102942.81;5047504;28;20185;-74
2022/04/29 11:03:44;;;;;;;7.50;3.10;;;;;;;19.87;35.87;102941.19;5048911;28;20186;-74
2022/04/29 11:06:14;;;;;;;5.77;3.20;;;;;;;20.21;36.52;102939.97;5036249;28;20194;-73
2022/04/29 11:08:40;;;;;;;8.40;3.30;;;;;;;20.22;36.20;102942.59;5012573;28;20226;-73
2022/04/29 11:11:07;;;;;;;5.97;2.90;;;;;;;20.44;35.90;102933.31;5013709;28;20731;-74
2022/04/29 11:13:47;;;;;;;5.40;3.00;;;;;;;20.72;33.58;102928.47;5011652;28;20228;-73
2022/04/29 11:16:52;;;;;;;6.40;3.03;;;;;;;20.65;35.17;102931.00;5012306;28;20188;-74
2022/04/29 11:19:45;;;;;;;7.90;3.43;;;;;;;19.86;35.69;102930.75;5013156;28;20205;-74
2022/04/29 11:25:01;;;;;;;9.17;2.90;;;;;;;20.51;35.22;102925.66;5032489;28;20194;-74
2022/04/29 11:27:50;;;;;;;5.30;2.43;;;;;;;20.39;35.21;102925.47;5031552;28;20233;-74
2022/04/29 11:30:23;;;;;;;4.93;2.43;;;;;;;20.20;35.51;102925.22;5030932;28;20197;-74
2022/04/29 11:32:57;;;;;;;5.77;2.30;;;;;;;20.47;33.78;102926.47;5032500;28;20206;-74
2022/04/29 11:35:23;;;;;;;6.07;2.10;;;;;;;20.49;34.00;102924.72;5032254;28;20230;-73
2022/04/29 11:37:48;;;;;;;4.93;2.33;;;;;;;20.60;33.65;102906.63;5032585;28;20206;-74
2022/04/29 11:40:13;;;;;;;5.47;2.37;;;;;;;20.80;33.91;102905.13;5019935;28;20611;-74
2022/04/29 11:42:49;;;;;;;5.90;2.30;;;;;;;20.96;32.43;102907.94;5012698;28;20222;-73
2022/04/29 11:45:14;;;;;;;4.73;2.30;;;;;;;21.10;34.07;102906.31;5032716;28;20194;-73
2022/04/29 11:47:44;;;;;;;2.70;2.03;;;;;;;21.17;33.42;102895.13;5027925;28;20229;-74
2022/04/29 11:50:10;;;;;;;4.67;2.20;;;;;;;21.06;32.04;102894.13;5012648;28;20211;-74
2022/04/29 11:52:39;;;;;;;4.20;2.30;;;;;;;21.15;32.15;102889.00;5011998;28;20696;-74
2022/04/29 11:55:16;;;;;;;5.63;2.20;;;;;;;20.74;31.52;102887.72;5012394;28;20294;-73
2022/04/29 11:57:47;;;;;;;4.77;2.37;;;;;;;21.13;32.23;102887.25;5026119;28;20196;-73
2022/04/29 12:00:25;;;;;;;4.63;2.47;;;;;;;20.78;33.62;102892.06;5032504;28;20191;-74
2022/04/29 12:02:51;;;;;;;6.70;2.40;;;;;;;20.76;32.98;102878.16;5031755;28;20221;-72
2022/04/29 12:05:22;;;;;;;3.73;2.00;;;;;;;20.72;32.13;102889.41;5030819;28;20192;-74
2022/04/29 12:07:51;;;;;;;6.73;2.27;;;;;;;20.40;31.73;102885.56;5031588;28;20542;-73